Vega Desgagnes — VOCQ — position and weather

sailwx.info

Track history (hours):
 
Tides and Currents Weather Stations Pressure Air Temp Water Temp Dewpoint Dewpoint Depression Visibility Wind Speed Wind Dir Waves Ship Positions

Vega Desgagnes

Last reported at 2014-Oct-19 17:08 UTC. Time now 2014-Oct-25 06:27 UTC.
Position N 44°01' W 076°29'.

Length 141 m; draft 7.3 m.

Type: Tanker. MMSI: 316003770.

Date/timePositionNaut miles runAvg speedWind from/ knotsBaromVisibWave heightAir tempDewpointWater temp
2014-Oct-19 17:08N 44°01' W 076°29'813.3
2014-Oct-19 16:33N 44°07' W 076°23'1212.2
2014-Oct-19 15:32N 44°14' W 076°09'88 7.3
2014-Oct-19 03:26N 45°07' W 074°29'910.5
2014-Oct-19 02:33N 45°12' W 074°18'9 9.2
2014-Oct-19 01:33N 45°13' W 074°05'8 7.6
2014-Oct-19 00:33N 45°18' W 073°56'2 1.5
2014-Oct-18 23:33N 45°19' W 073°55'2 1.7
2014-Oct-18 22:32N 45°20' W 073°54'9 9.6
2014-Oct-18 21:33N 45°25' W 073°42'6 5.7
2014-Oct-18 20:33N 45°24' W 073°34'6 2.8
2014-Oct-18 18:33N 45°30' W 073°31'4 3.8
2014-Oct-18 17:33N 45°33' W 073°31'5 4.6
2014-Oct-18 16:33N 45°38' W 073°30'0 0.0
2014-Oct-18 15:31N 45°38' W 073°29'0 0.0
2014-Oct-18 14:31N 45°38' W 073°30'0 0.0
2014-Oct-18 13:25N 45°38' W 073°30'0 0.0
2014-Oct-18 12:13N 45°38' W 073°29'0 0.0
2014-Oct-18 11:31N 45°38' W 073°30'0 0.0
2014-Oct-18 10:31N 45°38' W 073°30'0 0.0
2014-Oct-18 09:31N 45°38' W 073°29'0 0.0
2014-Oct-18 08:31N 45°38' W 073°30'0 0.0
2014-Oct-18 07:31N 45°38' W 073°30'0 0.0
2014-Oct-18 06:31N 45°38' W 073°30'0 0.0
2014-Oct-18 05:31N 45°38' W 073°30'0 0.0
2014-Oct-18 04:31N 45°38' W 073°30'0 0.0
2014-Oct-18 03:28N 45°38' W 073°30'0 0.0
2014-Oct-17 21:31N 45°38' W 073°29'0 0.0
2014-Oct-17 20:31N 45°38' W 073°29'0 0.0
2014-Oct-17 19:28N 45°38' W 073°29'0 0.0
2014-Oct-17 18:31N 45°38' W 073°30'0 0.0
2014-Oct-17 17:31N 45°38' W 073°29'0 0.0
2014-Oct-17 16:31N 45°38' W 073°29'0 0.0
2014-Oct-17 15:31N 45°38' W 073°30'1 0.9
2014-Oct-17 14:31N 45°39' W 073°29'0 0.0
2014-Oct-17 13:31N 45°39' W 073°29'0 0.0
2014-Oct-17 12:28N 45°39' W 073°29'0 0.0
2014-Oct-17 11:31N 45°39' W 073°29'0 0.0
2014-Oct-17 10:33N 45°39' W 073°29'0 0.0
2014-Oct-17 09:33N 45°39' W 073°29'0 0.0
2014-Oct-17 08:33N 45°39' W 073°29'4 3.8
2014-Oct-17 07:33N 45°35' W 073°30'5 5.4
2014-Oct-17 06:34N 45°30' W 073°31'2 2.3
2014-Oct-17 05:30N 45°27' W 073°30'4 4.1
2014-Oct-17 04:33N 45°24' W 073°34'2 1.9
2014-Oct-17 03:33N 45°24' W 073°37'7 7.2
2014-Oct-17 02:33N 45°24' W 073°47'8 7.9
2014-Oct-17 01:33N 45°19' W 073°55'1 1.2
2014-Oct-17 00:33N 45°18' W 073°56'7 6.6
2014-Oct-16 23:33N 45°13' W 074°03'1110.7
2014-Oct-16 22:33N 45°12' W 074°18'96 8.0
2014-Oct-16 10:32N 44°14' W 076°07'1212.4
2014-Oct-16 09:33N 44°08' W 076°21'  
2014-Oct-14 00:33N 44°03' W 076°27'1211.9
2014-Oct-13 23:31N 44°12' W 076°15'94 7.9
2014-Oct-13 11:34N 45°07' W 074°28'1010.3
2014-Oct-13 10:34N 45°13' W 074°16'9 8.8
2014-Oct-13 09:34N 45°13' W 074°04'7 7.4
2014-Oct-13 08:34N 45°18' W 073°56'1 0.9
2014-Oct-13 07:34N 45°19' W 073°55'1 1.3
2014-Oct-13 06:33N 45°20' W 073°54'0 0.3
2014-Oct-13 05:34N 45°20' W 073°54'2 2.1
2014-Oct-13 04:34N 45°21' W 073°51'9 8.7
2014-Oct-13 03:34N 45°25' W 073°40'4 4.4
2014-Oct-13 02:34N 45°24' W 073°34'2 2.5
2014-Oct-13 01:34N 45°25' W 073°30'3 2.6
2014-Oct-13 00:34N 45°28' W 073°30'2 1.9
2014-Oct-12 23:33N 45°30' W 073°31'3 2.5
2014-Oct-12 22:34N 45°32' W 073°32'5 0.2
2014-Oct-12 02:15N 45°37' W 073°30'1 0.9
2014-Oct-12 01:34N 45°37' W 073°30'0 0.4
2014-Oct-12 00:33N 45°37' W 073°30'7 7.2
2014-Oct-11 23:33N 45°30' W 073°31'1 1.2
2014-Oct-11 22:33N 45°28' W 073°30'5 4.7
2014-Oct-11 21:33N 45°24' W 073°34'3 2.5
2014-Oct-11 20:33N 45°24' W 073°37'8 8.2
2014-Oct-11 19:33N 45°23' W 073°49'6 6.1
2014-Oct-11 18:33N 45°19' W 073°55'3 2.4
2014-Oct-11 17:29N 45°16' W 073°57'8 8.2
2014-Oct-11 16:33N 45°14' W 074°07'105 8.8
2014-Oct-11 04:33N 44°14' W 076°09'1313.1
2014-Oct-11 03:33N 44°06' W 076°24'  
Track history (hours):
 
Tides and Currents Weather Stations Pressure Air Temp Water Temp Dewpoint Dewpoint Depression Visibility Wind Speed Wind Dir Waves Ship Positions

Vega Desgagnes

Last reported at 2014-Oct-19 17:08 UTC. Time now 2014-Oct-25 06:27 UTC.
Position N 44°01' W 076°29'.

Length 141 m; draft 7.3 m.

Type: Tanker. MMSI: 316003770.

Date/timePositionNaut miles runAvg speedWind from/ knotsBaromVisibWave heightAir tempDewpointWater temp
2014-Oct-19 17:08N 44°01' W 076°29'813.3
2014-Oct-19 16:33N 44°07' W 076°23'1212.2
2014-Oct-19 15:32N 44°14' W 076°09'88 7.3
2014-Oct-19 03:26N 45°07' W 074°29'910.5
2014-Oct-19 02:33N 45°12' W 074°18'9 9.2
2014-Oct-19 01:33N 45°13' W 074°05'8 7.6
2014-Oct-19 00:33N 45°18' W 073°56'2 1.5
2014-Oct-18 23:33N 45°19' W 073°55'2 1.7
2014-Oct-18 22:32N 45°20' W 073°54'9 9.6
2014-Oct-18 21:33N 45°25' W 073°42'6 5.7
2014-Oct-18 20:33N 45°24' W 073°34'6 2.8
2014-Oct-18 18:33N 45°30' W 073°31'4 3.8
2014-Oct-18 17:33N 45°33' W 073°31'5 4.6
2014-Oct-18 16:33N 45°38' W 073°30'0 0.0
2014-Oct-18 15:31N 45°38' W 073°29'0 0.0
2014-Oct-18 14:31N 45°38' W 073°30'0 0.0
2014-Oct-18 13:25N 45°38' W 073°30'0 0.0
2014-Oct-18 12:13N 45°38' W 073°29'0 0.0
2014-Oct-18 11:31N 45°38' W 073°30'0 0.0
2014-Oct-18 10:31N 45°38' W 073°30'0 0.0
2014-Oct-18 09:31N 45°38' W 073°29'0 0.0
2014-Oct-18 08:31N 45°38' W 073°30'0 0.0
2014-Oct-18 07:31N 45°38' W 073°30'0 0.0
2014-Oct-18 06:31N 45°38' W 073°30'0 0.0
2014-Oct-18 05:31N 45°38' W 073°30'0 0.0
2014-Oct-18 04:31N 45°38' W 073°30'0 0.0
2014-Oct-18 03:28N 45°38' W 073°30'0 0.0
2014-Oct-17 21:31N 45°38' W 073°29'0 0.0
2014-Oct-17 20:31N 45°38' W 073°29'0 0.0
2014-Oct-17 19:28N 45°38' W 073°29'0 0.0
2014-Oct-17 18:31N 45°38' W 073°30'0 0.0
2014-Oct-17 17:31N 45°38' W 073°29'0 0.0
2014-Oct-17 16:31N 45°38' W 073°29'0 0.0
2014-Oct-17 15:31N 45°38' W 073°30'1 0.9
2014-Oct-17 14:31N 45°39' W 073°29'0 0.0
2014-Oct-17 13:31N 45°39' W 073°29'0 0.0
2014-Oct-17 12:28N 45°39' W 073°29'0 0.0
2014-Oct-17 11:31N 45°39' W 073°29'0 0.0
2014-Oct-17 10:33N 45°39' W 073°29'0 0.0
2014-Oct-17 09:33N 45°39' W 073°29'0 0.0
2014-Oct-17 08:33N 45°39' W 073°29'4 3.8
2014-Oct-17 07:33N 45°35' W 073°30'5 5.4
2014-Oct-17 06:34N 45°30' W 073°31'2 2.3
2014-Oct-17 05:30N 45°27' W 073°30'4 4.1
2014-Oct-17 04:33N 45°24' W 073°34'2 1.9
2014-Oct-17 03:33N 45°24' W 073°37'7 7.2
2014-Oct-17 02:33N 45°24' W 073°47'8 7.9
2014-Oct-17 01:33N 45°19' W 073°55'1 1.2
2014-Oct-17 00:33N 45°18' W 073°56'7 6.6
2014-Oct-16 23:33N 45°13' W 074°03'1110.7
2014-Oct-16 22:33N 45°12' W 074°18'96 8.0
2014-Oct-16 10:32N 44°14' W 076°07'1212.4
2014-Oct-16 09:33N 44°08' W 076°21'  
2014-Oct-14 00:33N 44°03' W 076°27'1211.9
2014-Oct-13 23:31N 44°12' W 076°15'94 7.9
2014-Oct-13 11:34N 45°07' W 074°28'1010.3
2014-Oct-13 10:34N 45°13' W 074°16'9 8.8
2014-Oct-13 09:34N 45°13' W 074°04'7 7.4
2014-Oct-13 08:34N 45°18' W 073°56'1 0.9
2014-Oct-13 07:34N 45°19' W 073°55'1 1.3
2014-Oct-13 06:33N 45°20' W 073°54'0 0.3
2014-Oct-13 05:34N 45°20' W 073°54'2 2.1
2014-Oct-13 04:34N 45°21' W 073°51'9 8.7
2014-Oct-13 03:34N 45°25' W 073°40'4 4.4
2014-Oct-13 02:34N 45°24' W 073°34'2 2.5
2014-Oct-13 01:34N 45°25' W 073°30'3 2.6
2014-Oct-13 00:34N 45°28' W 073°30'2 1.9
2014-Oct-12 23:33N 45°30' W 073°31'3 2.5
2014-Oct-12 22:34N 45°32' W 073°32'5 0.2
2014-Oct-12 02:15N 45°37' W 073°30'1 0.9
2014-Oct-12 01:34N 45°37' W 073°30'0 0.4
2014-Oct-12 00:33N 45°37' W 073°30'7 7.2
2014-Oct-11 23:33N 45°30' W 073°31'1 1.2
2014-Oct-11 22:33N 45°28' W 073°30'5 4.7
2014-Oct-11 21:33N 45°24' W 073°34'3 2.5
2014-Oct-11 20:33N 45°24' W 073°37'8 8.2
2014-Oct-11 19:33N 45°23' W 073°49'6 6.1
2014-Oct-11 18:33N 45°19' W 073°55'3 2.4
2014-Oct-11 17:29N 45°16' W 073°57'8 8.2
2014-Oct-11 16:33N 45°14' W 074°07'105 8.8
2014-Oct-11 04:33N 44°14' W 076°09'1313.1
2014-Oct-11 03:33N 44°06' W 076°24'  

Dump ship's entire track history